sensor_id;sensor_type;location;lat;lon;timestamp;pressure;altitude;pressure_sealevel;temperature;humidity
70338;BME280;57757;53.198;19.646;2024-01-15T00:02:13;97763.13;;;0.44;86.00
70338;BME280;57757;53.198;19.646;2024-01-15T00:04:41;97761.60;;;0.43;86.11
70338;BME280;57757;53.198;19.646;2024-01-15T00:07:09;97755.11;;;0.43;86.14
70338;BME280;57757;53.198;19.646;2024-01-15T00:09:37;97747.60;;;0.43;86.14
70338;BME280;57757;53.198;19.646;2024-01-15T00:12:05;97747.41;;;0.44;86.16
70338;BME280;57757;53.198;19.646;2024-01-15T00:14:33;97735.61;;;0.44;86.19
70338;BME280;57757;53.198;19.646;2024-01-15T00:17:00;97738.68;;;0.44;86.07
70338;BME280;57757;53.198;19.646;2024-01-15T00:19:28;97731.34;;;0.43;86.28
70338;BME280;57757;53.198;19.646;2024-01-15T00:21:55;97725.52;;;0.43;86.19
70338;BME280;57757;53.198;19.646;2024-01-15T00:24:24;97720.39;;;0.44;86.29
70338;BME280;57757;53.198;19.646;2024-01-15T00:26:52;97714.92;;;0.44;86.17
70338;BME280;57757;53.198;19.646;2024-01-15T00:29:21;97710.83;;;0.44;86.17
70338;BME280;57757;53.198;19.646;2024-01-15T00:31:49;97709.10;;;0.44;86.23
70338;BME280;57757;53.198;19.646;2024-01-15T00:34:17;97702.94;;;0.45;86.24
70338;BME280;57757;53.198;19.646;2024-01-15T00:36:45;97706.66;;;0.46;86.16
70338;BME280;57757;53.198;19.646;2024-01-15T00:39:12;97696.56;;;0.47;86.17
70338;BME280;57757;53.198;19.646;2024-01-15T00:41:40;97690.73;;;0.47;86.23
70338;BME280;57757;53.198;19.646;2024-01-15T00:44:08;97688.52;;;0.47;86.16
70338;BME280;57757;53.198;19.646;2024-01-15T00:46:45;97684.75;;;0.47;86.23
70338;BME280;57757;53.198;19.646;2024-01-15T00:49:13;97684.58;;;0.47;86.12
70338;BME280;57757;53.198;19.646;2024-01-15T00:51:42;97678.79;;;0.46;86.01
70338;BME280;57757;53.198;19.646;2024-01-15T00:54:09;97672.52;;;0.44;86.15
70338;BME280;57757;53.198;19.646;2024-01-15T00:56:37;97669.33;;;0.41;86.00
70338;BME280;57757;53.198;19.646;2024-01-15T00:59:05;97669.52;;;0.41;86.24
70338;BME280;57757;53.198;19.646;2024-01-15T01:01:33;97665.93;;;0.41;86.26
70338;BME280;57757;53.198;19.646;2024-01-15T01:04:00;97667.80;;;0.41;86.27
70338;BME280;57757;53.198;19.646;2024-01-15T01:06:28;97665.77;;;0.40;86.26
70338;BME280;57757;53.198;19.646;2024-01-15T01:09:00;97664.77;;;0.38;86.26
70338;BME280;57757;53.198;19.646;2024-01-15T01:11:27;97659.17;;;0.37;86.39
70338;BME280;57757;53.198;19.646;2024-01-15T01:13:55;97657.66;;;0.36;86.26
70338;BME280;57757;53.198;19.646;2024-01-15T01:16:24;97650.83;;;0.35;86.45
70338;BME280;57757;53.198;19.646;2024-01-15T01:18:51;97644.04;;;0.34;86.33
70338;BME280;57757;53.198;19.646;2024-01-15T01:21:20;97637.37;;;0.34;86.52
70338;BME280;57757;53.198;19.646;2024-01-15T01:23:47;97638.05;;;0.34;86.47
70338;BME280;57757;53.198;19.646;2024-01-15T01:26:16;97636.52;;;0.34;86.41
70338;BME280;57757;53.198;19.646;2024-01-15T01:28:44;97636.01;;;0.34;86.43
70338;BME280;57757;53.198;19.646;2024-01-15T01:31:12;97627.11;;;0.34;86.53
70338;BME280;57757;53.198;19.646;2024-01-15T01:33:40;97621.58;;;0.36;86.68
70338;BME280;57757;53.198;19.646;2024-01-15T01:36:08;97630.07;;;0.39;86.59
70338;BME280;57757;53.198;19.646;2024-01-15T01:38:40;97612.41;;;0.41;86.45
70338;BME280;57757;53.198;19.646;2024-01-15T01:41:07;97604.84;;;0.42;86.58
70338;BME280;57757;53.198;19.646;2024-01-15T01:43:35;97603.96;;;0.43;86.54
70338;BME280;57757;53.198;19.646;2024-01-15T01:46:03;97598.16;;;0.43;86.35
70338;BME280;57757;53.198;19.646;2024-01-15T01:48:31;97594.28;;;0.41;86.38
70338;BME280;57757;53.198;19.646;2024-01-15T01:51:02;97593.80;;;0.39;86.42
70338;BME280;57757;53.198;19.646;2024-01-15T01:53:34;97591.96;;;0.38;86.49
70338;BME280;57757;53.198;19.646;2024-01-15T01:56:03;97582.25;;;0.37;86.38
70338;BME280;57757;53.198;19.646;2024-01-15T01:58:32;97587.05;;;0.36;86.57
70338;BME280;57757;53.198;19.646;2024-01-15T02:01:00;97571.56;;;0.34;86.48
70338;BME280;57757;53.198;19.646;2024-01-15T02:03:30;97572.77;;;0.33;86.42
70338;BME280;57757;53.198;19.646;2024-01-15T02:05:59;97566.61;;;0.33;86.54
70338;BME280;57757;53.198;19.646;2024-01-15T02:08:28;97571.90;;;0.33;86.42
70338;BME280;57757;53.198;19.646;2024-01-15T02:10:56;97560.96;;;0.34;86.64
70338;BME280;57757;53.198;19.646;2024-01-15T02:13:24;97555.33;;;0.33;86.60
70338;BME280;57757;53.198;19.646;2024-01-15T02:15:51;97554.48;;;0.33;86.48
70338;BME280;57757;53.198;19.646;2024-01-15T02:18:19;97551.88;;;0.34;86.63
70338;BME280;57757;53.198;19.646;2024-01-15T02:20:47;97546.20;;;0.35;86.62
70338;BME280;57757;53.198;19.646;2024-01-15T02:23:15;97548.58;;;0.37;86.54
70338;BME280;57757;53.198;19.646;2024-01-15T02:25:45;97542.40;;;0.38;86.48
70338;BME280;57757;53.198;19.646;2024-01-15T02:28:15;97538.64;;;0.38;86.41
70338;BME280;57757;53.198;19.646;2024-01-15T02:30:43;97534.20;;;0.37;86.46
70338;BME280;57757;53.198;19.646;2024-01-15T02:33:11;97526.29;;;0.38;86.46
70338;BME280;57757;53.198;19.646;2024-01-15T02:35:40;97518.42;;;0.39;86.52
70338;BME280;57757;53.198;19.646;2024-01-15T02:38:08;97520.79;;;0.40;86.51
70338;BME280;57757;53.198;19.646;2024-01-15T02:40:35;97518.73;;;0.40;86.61
70338;BME280;57757;53.198;19.646;2024-01-15T02:43:03;97517.70;;;0.41;86.54
70338;BME280;57757;53.198;19.646;2024-01-15T02:45:31;97512.33;;;0.43;86.52
70338;BME280;57757;53.198;19.646;2024-01-15T02:47:58;97500.52;;;0.44;86.49
70338;BME280;57757;53.198;19.646;2024-01-15T02:50:26;97498.13;;;0.44;86.51
70338;BME280;57757;53.198;19.646;2024-01-15T02:52:54;97490.26;;;0.44;86.52
70338;BME280;57757;53.198;19.646;2024-01-15T02:55:21;97483.08;;;0.44;86.53
70338;BME280;57757;53.198;19.646;2024-01-15T02:57:49;97479.11;;;0.45;86.58
70338;BME280;57757;53.198;19.646;2024-01-15T03:00:17;97478.59;;;0.46;86.42
70338;BME280;57757;53.198;19.646;2024-01-15T03:02:44;97475.33;;;0.46;86.58
70338;BME280;57757;53.198;19.646;2024-01-15T03:05:15;97467.84;;;0.46;86.57
70338;BME280;57757;53.198;19.646;2024-01-15T03:07:43;97466.95;;;0.46;86.58
70338;BME280;57757;53.198;19.646;2024-01-15T03:10:11;97464.04;;;0.46;86.42
70338;BME280;57757;53.198;19.646;2024-01-15T03:12:39;97465.39;;;0.47;86.37
70338;BME280;57757;53.198;19.646;2024-01-15T03:15:06;97458.20;;;0.47;86.45
70338;BME280;57757;53.198;19.646;2024-01-15T03:17:34;97457.68;;;0.47;86.35
70338;BME280;57757;53.198;19.646;2024-01-15T03:20:02;97449.14;;;0.47;86.42
70338;BME280;57757;53.198;19.646;2024-01-15T03:22:30;97448.28;;;0.47;86.45
70338;BME280;57757;53.198;19.646;2024-01-15T03:24:58;97444.18;;;0.47;86.37
70338;BME280;57757;53.198;19.646;2024-01-15T03:27:26;97438.02;;;0.46;86.35
70338;BME280;57757;53.198;19.646;2024-01-15T03:29:53;97435.66;;;0.46;86.38
70338;BME280;57757;53.198;19.646;2024-01-15T03:32:21;97434.17;;;0.44;86.48
70338;BME280;57757;53.198;19.646;2024-01-15T03:34:49;97431.27;;;0.44;86.37
70338;BME280;57757;53.198;19.646;2024-01-15T03:37:17;97431.11;;;0.43;86.35
70338;BME280;57757;53.198;19.646;2024-01-15T03:39:44;97425.48;;;0.43;86.36
70338;BME280;57757;53.198;19.646;2024-01-15T03:42:12;97426.67;;;0.43;86.41
70338;BME280;57757;53.198;19.646;2024-01-15T03:44:39;97421.02;;;0.44;86.34
70338;BME280;57757;53.198;19.646;2024-01-15T03:47:07;97418.98;;;0.43;86.45
70338;BME280;57757;53.198;19.646;2024-01-15T03:49:34;97416.27;;;0.42;86.44
70338;BME280;57757;53.198;19.646;2024-01-15T03:52:03;97417.50;;;0.41;86.41
70338;BME280;57757;53.198;19.646;2024-01-15T03:54:30;97410.02;;;0.40;86.48
70338;BME280;57757;53.198;19.646;2024-01-15T03:56:58;97411.42;;;0.38;86.38
70338;BME280;57757;53.198;19.646;2024-01-15T03:59:26;97412.68;;;0.36;86.45
70338;BME280;57757;53.198;19.646;2024-01-15T04:01:54;97406.35;;;0.36;86.51
70338;BME280;57757;53.198;19.646;2024-01-15T04:04:22;97409.27;;;0.36;86.47
70338;BME280;57757;53.198;19.646;2024-01-15T04:06:52;97407.23;;;0.36;86.49
70338;BME280;57757;53.198;19.646;2024-01-15T04:09:19;97397.13;;;0.35;86.63
70338;BME280;57757;53.198;19.646;2024-01-15T04:11:47;97396.30;;;0.35;86.70
70338;BME280;57757;53.198;19.646;2024-01-15T04:14:15;97390.49;;;0.35;86.69
70338;BME280;57757;53.198;19.646;2024-01-15T04:16:42;97392.20;;;0.35;86.79
70338;BME280;57757;53.198;19.646;2024-01-15T04:19:10;97386.38;;;0.35;86.88
70338;BME280;57757;53.198;19.646;2024-01-15T04:21:37;97377.50;;;0.35;86.85
70338;BME280;57757;53.198;19.646;2024-01-15T04:24:06;97372.54;;;0.35;86.77
70338;BME280;57757;53.198;19.646;2024-01-15T04:26:33;97368.65;;;0.34;86.80
70338;BME280;57757;53.198;19.646;2024-01-15T04:29:01;97363.88;;;0.33;86.76
70338;BME280;57757;53.198;19.646;2024-01-15T04:31:28;97362.89;;;0.31;86.81
70338;BME280;57757;53.198;19.646;2024-01-15T04:33:56;97358.86;;;0.29;86.68
70338;BME280;57757;53.198;19.646;2024-01-15T04:36:24;97356.46;;;0.29;86.64
70338;BME280;57757;53.198;19.646;2024-01-15T04:38:52;97350.14;;;0.29;86.66
70338;BME280;57757;53.198;19.646;2024-01-15T04:41:20;97346.91;;;0.28;86.63
70338;BME280;57757;53.198;19.646;2024-01-15T04:43:48;97340.61;;;0.27;86.73
70338;BME280;57757;53.198;19.646;2024-01-15T04:46:15;97330.52;;;0.28;86.70
70338;BME280;57757;53.198;19.646;2024-01-15T04:48:43;97329.98;;;0.29;86.64
70338;BME280;57757;53.198;19.646;2024-01-15T04:51:11;97329.80;;;0.29;86.67
70338;BME280;57757;53.198;19.646;2024-01-15T04:53:38;97329.65;;;0.29;86.64
70338;BME280;57757;53.198;19.646;2024-01-15T04:56:06;97318.08;;;0.27;86.65
70338;BME280;57757;53.198;19.646;2024-01-15T04:58:34;97321.21;;;0.24;86.63
70338;BME280;57757;53.198;19.646;2024-01-15T05:01:02;97318.55;;;0.22;86.85
70338;BME280;57757;53.198;19.646;2024-01-15T05:03:31;97310.27;;;0.19;86.76
70338;BME280;57757;53.198;19.646;2024-01-15T05:05:59;97309.17;;;0.15;86.85
70338;BME280;57757;53.198;19.646;2024-01-15T05:08:27;97299.71;;;0.12;86.94
70338;BME280;57757;53.198;19.646;2024-01-15T05:10:55;97296.22;;;0.08;86.94
70338;BME280;57757;53.198;19.646;2024-01-15T05:13:23;97287.06;;;0.05;86.95
70338;BME280;57757;53.198;19.646;2024-01-15T05:15:50;97288.73;;;0.01;86.83
70338;BME280;57757;53.198;19.646;2024-01-15T05:18:18;97283.23;;;-0.04;87.00
70338;BME280;57757;53.198;19.646;2024-01-15T05:20:46;97272.73;;;-0.08;87.10
70338;BME280;57757;53.198;19.646;2024-01-15T05:23:14;97270.59;;;-0.11;87.20
70338;BME280;57757;53.198;19.646;2024-01-15T05:25:41;97268.95;;;-0.12;87.25
70338;BME280;57757;53.198;19.646;2024-01-15T05:28:09;97257.36;;;-0.14;87.29
70338;BME280;57757;53.198;19.646;2024-01-15T05:30:36;97260.96;;;-0.15;87.30
70338;BME280;57757;53.198;19.646;2024-01-15T05:33:04;97271.40;;;-0.15;87.34
70338;BME280;57757;53.198;19.646;2024-01-15T05:35:32;97266.13;;;-0.16;87.24
70338;BME280;57757;53.198;19.646;2024-01-15T05:38:00;97262.52;;;-0.15;87.34
70338;BME280;57757;53.198;19.646;2024-01-15T05:40:28;97263.27;;;-0.17;87.35
70338;BME280;57757;53.198;19.646;2024-01-15T05:42:55;97263.61;;;-0.18;87.36
70338;BME280;57757;53.198;19.646;2024-01-15T05:45:23;97262.94;;;-0.18;87.57
70338;BME280;57757;53.198;19.646;2024-01-15T05:47:50;97264.64;;;-0.18;87.58
70338;BME280;57757;53.198;19.646;2024-01-15T05:50:18;97261.41;;;-0.18;87.62
70338;BME280;57757;53.198;19.646;2024-01-15T05:52:46;97261.45;;;-0.19;87.59
70338;BME280;57757;53.198;19.646;2024-01-15T05:55:13;97266.26;;;-0.20;87.67
70338;BME280;57757;53.198;19.646;2024-01-15T05:57:41;97270.20;;;-0.21;87.59
70338;BME280;57757;53.198;19.646;2024-01-15T06:00:09;97274.16;;;-0.23;87.42
70338;BME280;57757;53.198;19.646;2024-01-15T06:02:38;97268.75;;;-0.24;87.59
70338;BME280;57757;53.198;19.646;2024-01-15T06:05:06;97278.34;;;-0.26;87.56
70338;BME280;57757;53.198;19.646;2024-01-15T06:07:35;97270.55;;;-0.27;87.49
70338;BME280;57757;53.198;19.646;2024-01-15T06:10:04;97277.23;;;-0.28;87.62
70338;BME280;57757;53.198;19.646;2024-01-15T06:12:34;97276.04;;;-0.28;87.68
70338;BME280;57757;53.198;19.646;2024-01-15T06:15:02;97274.64;;;-0.27;87.67
70338;BME280;57757;53.198;19.646;2024-01-15T06:17:30;97272.88;;;-0.26;87.72
70338;BME280;57757;53.198;19.646;2024-01-15T06:19:58;97273.54;;;-0.24;87.61
70338;BME280;57757;53.198;19.646;2024-01-15T06:22:26;97272.34;;;-0.24;87.66
70338;BME280;57757;53.198;19.646;2024-01-15T06:24:53;97265.70;;;-0.25;87.60
70338;BME280;57757;53.198;19.646;2024-01-15T06:27:21;97280.02;;;-0.23;87.68
70338;BME280;57757;53.198;19.646;2024-01-15T06:29:49;97286.81;;;-0.22;87.68
70338;BME280;57757;53.198;19.646;2024-01-15T06:32:18;97279.27;;;-0.22;87.56
70338;BME280;57757;53.198;19.646;2024-01-15T06:34:45;97290.02;;;-0.21;87.54
70338;BME280;57757;53.198;19.646;2024-01-15T06:37:13;97287.27;;;-0.20;87.53
70338;BME280;57757;53.198;19.646;2024-01-15T06:39:40;97288.64;;;-0.20;87.27
70338;BME280;57757;53.198;19.646;2024-01-15T06:42:08;97295.13;;;-0.21;87.26
70338;BME280;57757;53.198;19.646;2024-01-15T06:44:35;97299.23;;;-0.21;87.19
70338;BME280;57757;53.198;19.646;2024-01-15T06:47:03;97313.08;;;-0.21;87.18
70338;BME280;57757;53.198;19.646;2024-01-15T06:49:31;97306.73;;;-0.21;87.14
70338;BME280;57757;53.198;19.646;2024-01-15T06:51:59;97307.77;;;-0.21;87.06
70338;BME280;57757;53.198;19.646;2024-01-15T06:54:26;97309.31;;;-0.22;87.03
70338;BME280;57757;53.198;19.646;2024-01-15T06:56:54;97318.20;;;-0.21;87.19
70338;BME280;57757;53.198;19.646;2024-01-15T06:59:22;97309.66;;;-0.21;87.07
70338;BME280;57757;53.198;19.646;2024-01-15T07:01:49;97302.14;;;-0.21;86.92
70338;BME280;57757;53.198;19.646;2024-01-15T07:04:17;97307.95;;;-0.21;86.90
70338;BME280;57757;53.198;19.646;2024-01-15T07:06:45;97305.73;;;-0.22;86.92
70338;BME280;57757;53.198;19.646;2024-01-15T07:09:13;97299.08;;;-0.22;86.83
70338;BME280;57757;53.198;19.646;2024-01-15T07:11:44;97301.96;;;-0.21;86.72
70338;BME280;57757;53.198;19.646;2024-01-15T07:14:13;97310.61;;;-0.19;86.53
70338;BME280;57757;53.198;19.646;2024-01-15T07:16:41;97311.42;;;-0.18;86.46
70338;BME280;57757;53.198;19.646;2024-01-15T07:19:12;97315.71;;;-0.18;86.51
70338;BME280;57757;53.198;19.646;2024-01-15T07:21:40;97313.84;;;-0.18;86.44
70338;BME280;57757;53.198;19.646;2024-01-15T07:24:09;97310.96;;;-0.19;86.38
70338;BME280;57757;53.198;19.646;2024-01-15T07:26:38;97310.17;;;-0.21;86.44
70338;BME280;57757;53.198;19.646;2024-01-15T07:29:05;97305.73;;;-0.22;86.51
70338;BME280;57757;53.198;19.646;2024-01-15T07:31:33;97299.27;;;-0.22;86.50
70338;BME280;57757;53.198;19.646;2024-01-15T07:34:00;97306.45;;;-0.23;86.51
70338;BME280;57757;53.198;19.646;2024-01-15T07:36:28;97314.46;;;-0.23;86.50
70338;BME280;57757;53.198;19.646;2024-01-15T07:38:56;97312.91;;;-0.22;86.42
70338;BME280;57757;53.198;19.646;2024-01-15T07:41:23;97312.91;;;-0.22;86.46
70338;BME280;57757;53.198;19.646;2024-01-15T07:43:51;97310.52;;;-0.22;86.33
70338;BME280;57757;53.198;19.646;2024-01-15T07:46:18;97305.92;;;-0.22;86.37
70338;BME280;57757;53.198;19.646;2024-01-15T07:48:46;97308.96;;;-0.21;86.47
70338;BME280;57757;53.198;19.646;2024-01-15T07:51:14;97305.66;;;-0.19;86.38
70338;BME280;57757;53.198;19.646;2024-01-15T07:53:41;97304.77;;;-0.17;86.48
70338;BME280;57757;53.198;19.646;2024-01-15T07:56:09;97306.08;;;-0.15;86.44
70338;BME280;57757;53.198;19.646;2024-01-15T07:58:36;97302.27;;;-0.14;86.33
70338;BME280;57757;53.198;19.646;2024-01-15T08:01:04;97301.75;;;-0.13;86.33
70338;BME280;57757;53.198;19.646;2024-01-15T08:03:32;97311.48;;;-0.12;86.26
70338;BME280;57757;53.198;19.646;2024-01-15T08:05:59;97309.95;;;-0.13;86.19
70338;BME280;57757;53.198;19.646;2024-01-15T08:08:27;97304.83;;;-0.13;86.20
70338;BME280;57757;53.198;19.646;2024-01-15T08:10:54;97301.60;;;-0.14;86.27
70338;BME280;57757;53.198;19.646;2024-01-15T08:13:22;97302.45;;;-0.14;86.29
70338;BME280;57757;53.198;19.646;2024-01-15T08:15:50;97298.84;;;-0.13;86.38
70338;BME280;57757;53.198;19.646;2024-01-15T08:18:18;97301.30;;;-0.09;86.41
70338;BME280;57757;53.198;19.646;2024-01-15T08:20:46;97306.03;;;-0.07;86.23
70338;BME280;57757;53.198;19.646;2024-01-15T08:23:14;97309.06;;;-0.05;86.17
70338;BME280;57757;53.198;19.646;2024-01-15T08:25:42;97304.21;;;-0.04;86.22
70338;BME280;57757;53.198;19.646;2024-01-15T08:28:10;97300.08;;;-0.01;85.98
70338;BME280;57757;53.198;19.646;2024-01-15T08:30:37;97298.29;;;0.01;86.15
70338;BME280;57757;53.198;19.646;2024-01-15T08:33:05;97284.89;;;0.04;86.17
70338;BME280;57757;53.198;19.646;2024-01-15T08:35:45;97279.84;;;0.08;86.19
70338;BME280;57757;53.198;19.646;2024-01-15T08:38:13;97276.81;;;0.12;86.21
70338;BME280;57757;53.198;19.646;2024-01-15T08:40:41;97279.75;;;0.16;86.25
70338;BME280;57757;53.198;19.646;2024-01-15T08:43:08;97277.45;;;0.19;86.07
70338;BME280;57757;53.198;19.646;2024-01-15T08:45:36;97275.62;;;0.18;86.00
70338;BME280;57757;53.198;19.646;2024-01-15T08:48:04;97288.73;;;0.13;85.81
70338;BME280;57757;53.198;19.646;2024-01-15T08:50:32;97280.31;;;0.02;85.90
70338;BME280;57757;53.198;19.646;2024-01-15T08:53:00;97284.59;;;-0.04;86.51
70338;BME280;57757;53.198;19.646;2024-01-15T08:55:27;97287.95;;;-0.08;86.63
70338;BME280;57757;53.198;19.646;2024-01-15T08:57:55;97274.75;;;-0.12;86.43
70338;BME280;57757;53.198;19.646;2024-01-15T09:00:29;97280.73;;;-0.13;86.75
70338;BME280;57757;53.198;19.646;2024-01-15T09:03:02;97279.80;;;-0.10;86.86
70338;BME280;57757;53.198;19.646;2024-01-15T09:05:30;97273.02;;;-0.06;86.76
70338;BME280;57757;53.198;19.646;2024-01-15T09:08:00;97269.40;;;-0.04;86.66
70338;BME280;57757;53.198;19.646;2024-01-15T09:10:28;97269.33;;;-0.02;86.79
70338;BME280;57757;53.198;19.646;2024-01-15T09:12:56;97273.34;;;0.02;86.87
70338;BME280;57757;53.198;19.646;2024-01-15T09:15:24;97269.65;;;0.05;86.79
70338;BME280;57757;53.198;19.646;2024-01-15T09:17:51;97273.37;;;0.07;86.72
70338;BME280;57757;53.198;19.646;2024-01-15T09:20:19;97271.75;;;0.09;86.63
70338;BME280;57757;53.198;19.646;2024-01-15T09:22:48;97288.77;;;0.12;86.60
70338;BME280;57757;53.198;19.646;2024-01-15T09:25:16;97279.34;;;0.19;86.67
70338;BME280;57757;53.198;19.646;2024-01-15T09:27:43;97274.22;;;0.30;86.75
70338;BME280;57757;53.198;19.646;2024-01-15T09:30:14;97268.00;;;0.44;86.47
70338;BME280;57757;53.198;19.646;2024-01-15T09:32:42;97267.21;;;0.54;86.32
70338;BME280;57757;53.198;19.646;2024-01-15T09:35:10;97273.09;;;0.57;85.84
70338;BME280;57757;53.198;19.646;2024-01-15T09:37:39;97265.30;;;0.61;85.68
70338;BME280;57757;53.198;19.646;2024-01-15T09:40:15;97262.64;;;0.58;85.39
70338;BME280;57757;53.198;19.646;2024-01-15T09:42:44;97267.23;;;0.53;85.49
70338;BME280;57757;53.198;19.646;2024-01-15T09:45:13;97271.30;;;0.48;85.31
70338;BME280;57757;53.198;19.646;2024-01-15T09:47:43;97272.61;;;0.44;85.33
70338;BME280;57757;53.198;19.646;2024-01-15T09:50:14;97267.85;;;0.43;85.49
70338;BME280;57757;53.198;19.646;2024-01-15T09:52:48;97276.79;;;0.48;85.73
70338;BME280;57757;53.198;19.646;2024-01-15T09:55:18;97272.20;;;0.53;85.66
70338;BME280;57757;53.198;19.646;2024-01-15T09:57:46;97273.78;;;0.51;85.61
70338;BME280;57757;53.198;19.646;2024-01-15T10:00:17;97265.36;;;0.47;85.50
70338;BME280;57757;53.198;19.646;2024-01-15T10:02:45;97264.22;;;0.45;85.67
70338;BME280;57757;53.198;19.646;2024-01-15T10:05:13;97255.51;;;0.45;85.56
70338;BME280;57757;53.198;19.646;2024-01-15T10:07:42;97254.98;;;0.45;85.54
70338;BME280;57757;53.198;19.646;2024-01-15T10:10:11;97236.27;;;0.48;85.57
70338;BME280;57757;53.198;19.646;2024-01-15T10:12:39;97245.53;;;0.52;85.59
70338;BME280;57757;53.198;19.646;2024-01-15T10:15:09;97235.69;;;0.56;85.70
70338;BME280;57757;53.198;19.646;2024-01-15T10:17:39;97227.95;;;0.57;85.53
70338;BME280;57757;53.198;19.646;2024-01-15T10:20:09;97228.83;;;0.57;85.44
70338;BME280;57757;53.198;19.646;2024-01-15T10:22:41;97226.88;;;0.53;85.34
70338;BME280;57757;53.198;19.646;2024-01-15T10:25:18;97224.73;;;0.51;85.54
70338;BME280;57757;53.198;19.646;2024-01-15T10:28:03;97223.80;;;0.54;85.61
70338;BME280;57757;53.198;19.646;2024-01-15T10:30:32;97228.02;;;0.60;85.69
70338;BME280;57757;53.198;19.646;2024-01-15T10:33:03;97221.46;;;0.62;85.22
70338;BME280;57757;53.198;19.646;2024-01-15T10:35:32;97220.11;;;0.62;85.33
70338;BME280;57757;53.198;19.646;2024-01-15T10:38:01;97222.46;;;0.58;85.28
70338;BME280;57757;53.198;19.646;2024-01-15T10:40:30;97218.88;;;0.46;85.44
70338;BME280;57757;53.198;19.646;2024-01-15T10:42:57;97212.73;;;0.34;85.34
70338;BME280;57757;53.198;19.646;2024-01-15T10:45:25;97207.26;;;0.29;85.60
70338;BME280;57757;53.198;19.646;2024-01-15T10:47:54;97198.42;;;0.33;85.85
70338;BME280;57757;53.198;19.646;2024-01-15T10:50:27;97194.63;;;0.39;85.83
70338;BME280;57757;53.198;19.646;2024-01-15T10:52:57;97194.75;;;0.46;86.00
70338;BME280;57757;53.198;19.646;2024-01-15T10:55:25;97200.16;;;0.60;85.95
70338;BME280;57757;53.198;19.646;2024-01-15T10:57:54;97196.83;;;0.68;85.54
70338;BME280;57757;53.198;19.646;2024-01-15T11:00:24;97197.23;;;0.77;85.94
70338;BME280;57757;53.198;19.646;2024-01-15T11:02:54;97190.94;;;0.92;85.93
70338;BME280;57757;53.198;19.646;2024-01-15T11:05:25;97195.98;;;0.99;85.44
70338;BME280;57757;53.198;19.646;2024-01-15T11:07:58;97199.65;;;0.92;84.95
70338;BME280;57757;53.198;19.646;2024-01-15T11:10:47;97206.29;;;0.82;84.94
70338;BME280;57757;53.198;19.646;2024-01-15T11:18:30;97198.15;;;0.59;85.11
70338;BME280;57757;53.198;19.646;2024-01-15T11:29:10;97199.42;;;0.50;85.53
70338;BME280;57757;53.198;19.646;2024-01-15T11:34:07;97200.04;;;0.47;85.39
70338;BME280;57757;53.198;19.646;2024-01-15T11:41:59;97186.94;;;0.39;85.33
70338;BME280;57757;53.198;19.646;2024-01-15T11:44:28;97182.81;;;0.51;85.59
70338;BME280;57757;53.198;19.646;2024-01-15T11:47:03;97188.42;;;0.63;85.29
70338;BME280;57757;53.198;19.646;2024-01-15T11:52:35;97184.07;;;0.92;85.25
70338;BME280;57757;53.198;19.646;2024-01-15T11:58:10;97173.31;;;0.92;84.80
70338;BME280;57757;53.198;19.646;2024-01-15T12:00:44;97173.06;;;0.94;84.50
70338;BME280;57757;53.198;19.646;2024-01-15T12:03:13;97174.84;;;0.97;84.65
70338;BME280;57757;53.198;19.646;2024-01-15T12:05:42;97171.42;;;0.96;84.52
70338;BME280;57757;53.198;19.646;2024-01-15T12:08:10;97177.16;;;0.94;84.31
70338;BME280;57757;53.198;19.646;2024-01-15T12:10:41;97164.40;;;0.92;84.27
70338;BME280;57757;53.198;19.646;2024-01-15T12:13:12;97173.39;;;0.89;84.39
70338;BME280;57757;53.198;19.646;2024-01-15T12:15:42;97176.07;;;0.86;84.44
70338;BME280;57757;53.198;19.646;2024-01-15T12:18:14;97172.48;;;0.80;84.32
70338;BME280;57757;53.198;19.646;2024-01-15T12:20:45;97174.10;;;0.73;84.49
70338;BME280;57757;53.198;19.646;2024-01-15T12:23:16;97171.93;;;0.65;84.48
70338;BME280;57757;53.198;19.646;2024-01-15T12:25:45;97165.94;;;0.61;84.61
70338;BME280;57757;53.198;19.646;2024-01-15T12:28:14;97167.77;;;0.57;84.66
70338;BME280;57757;53.198;19.646;2024-01-15T12:30:42;97165.62;;;0.54;84.62
70338;BME280;57757;53.198;19.646;2024-01-15T12:33:13;97164.18;;;0.51;84.57
70338;BME280;57757;53.198;19.646;2024-01-15T12:35:40;97159.98;;;0.49;84.65
70338;BME280;57757;53.198;19.646;2024-01-15T12:38:10;97166.09;;;0.45;84.98
70338;BME280;57757;53.198;19.646;2024-01-15T12:40:43;97184.33;;;0.35;84.91
70338;BME280;57757;53.198;19.646;2024-01-15T12:43:13;97173.93;;;0.23;84.94
70338;BME280;57757;53.198;19.646;2024-01-15T12:45:41;97176.67;;;0.12;85.16
70338;BME280;57757;53.198;19.646;2024-01-15T12:48:09;97175.58;;;0.03;85.50
70338;BME280;57757;53.198;19.646;2024-01-15T12:50:36;97171.38;;;-0.06;85.35
70338;BME280;57757;53.198;19.646;2024-01-15T12:53:04;97179.36;;;-0.10;85.46
70338;BME280;57757;53.198;19.646;2024-01-15T12:55:32;97174.08;;;-0.10;85.65
70338;BME280;57757;53.198;19.646;2024-01-15T12:57:59;97171.63;;;-0.08;85.80
70338;BME280;57757;53.198;19.646;2024-01-15T13:00:27;97164.69;;;-0.05;85.79
70338;BME280;57757;53.198;19.646;2024-01-15T13:02:55;97165.33;;;0.03;86.00
70338;BME280;57757;53.198;19.646;2024-01-15T13:05:25;97165.83;;;0.09;85.83
70338;BME280;57757;53.198;19.646;2024-01-15T13:07:54;97174.11;;;0.12;85.62
70338;BME280;57757;53.198;19.646;2024-01-15T13:10:24;97184.46;;;0.14;85.60
70338;BME280;57757;53.198;19.646;2024-01-15T13:12:53;97187.49;;;0.16;85.60
70338;BME280;57757;53.198;19.646;2024-01-15T13:15:21;97202.39;;;0.15;85.56
70338;BME280;57757;53.198;19.646;2024-01-15T13:17:49;97207.71;;;0.08;85.78
70338;BME280;57757;53.198;19.646;2024-01-15T13:20:17;97221.75;;;0.01;85.78
70338;BME280;57757;53.198;19.646;2024-01-15T13:22:44;97197.34;;;-0.11;85.55
70338;BME280;57757;53.198;19.646;2024-01-15T13:25:13;97207.59;;;-0.30;85.41
70338;BME280;57757;53.198;19.646;2024-01-15T13:27:40;97207.42;;;-0.42;85.38
70338;BME280;57757;53.198;19.646;2024-01-15T13:30:10;97200.02;;;-0.52;85.42
70338;BME280;57757;53.198;19.646;2024-01-15T13:32:39;97208.35;;;-0.58;85.43